Hlavní strana
METAR-TAF:

METAR-TAF

Letiště :

Billy Mitchell Airport

Hatteras, Severní Karolína, Spojené státy americké

zeměpisná šířka: 35-13-56N, zeměpisná délka: 075-37-21W, výška: 5 m

Aktuální stav počasí

Zpráva byla vytvořena před 1 hodinou a 8 minutami, v 09:51 UTC
Severoseverovýchodní vítr 3 kt
Teplota 11°C
Vlhkost vzduchu 87%
Tlak 1022 hPa
Viditelnost: 16.1 km
Oblačno až skoro zataženo ve výšce 7000 ft

METAR: KHSE 240951Z AUTO 02003KT 10SM BKN070 11/09 A3017 RMK AO2 SLP216 T01110094

Čas: 05:59 (10:59 UTC)


TAF: chybějící

Stav a předpovědi počasí z více než 4 000 letišť (zprávy METAR a TAF).

Červené a žluté tečky na mapě představují dostupné meteorologické stanice.

Když kurzor umístíte na tečku, zobrazí se název stanice.

Pak kliknutím zobrazíte stav a předpověď počasí.

Chcete-li změnit mapu, kliknutím na zelené tlačítko se znaménkem +mapu přiblížíte, kliknutím na zelené tlačítko se znaménkem – mapu oddálíte a kliknutím na zelené šipky přejdete na sousední mapy.


METAR-TAF: